Aspen, CO (81611)

11:30 AM MST on December 03, 2016 (GMT -0700)
Tiehack Aspen Colorado | | Change Station

Elev 8500 ft 39.20 °N, 106.85 °W | Updated 7 seconds ago

Partly Cloudy
Partly Cloudy
30.0 °F
Feels Like 24 °F
N
6.0
Wind Variable Wind from North
Gusts 0.0 mph

Today
High -- | Low -- °F
--% Chance of Precip.
Yesterday
High -- | Low -- °F
Precip. -- in
Pressure 30.16 in
Visibility 10.0 miles
Clouds Few 3600 ft
Windchill 24 °F
Dew Point 21 °F
Humidity 67%
Rainfall 0.00 in
Snow Depth Not available.
7:10 AM 4:44 PM
Waxing Crescent, 16% visible
METAR KASE 031753Z VRB03KT 10SM FEW036 M04/M11 A3012 RMK AO2 SLP212 60000 T10441106 11044 21117 58002
Pressure 30.16 in
Visibility 10.0 miles
Clouds Few 3600 ft
Windchill 24 °F
Dew Point 21 °F
Humidity 67%
Rainfall 0.00 in
Snow Depth Not available.
7:10 AM 4:44 PM
Waxing Crescent, 16% visible
METAR KASE 031753Z VRB03KT 10SM FEW036 M04/M11 A3012 RMK AO2 SLP212 60000 T10441106 11044 21117 58002

10-Day Weather Forecast

Almanac

Astronomy

Dec. 03, 2016 Rise Set
Actual Time
Civil Twilight
Nautical Twilight
Astronomical Twilight
Moon
Length of Visible Light
Length of Day
Tomorrow will be .
, % of the Moon is Illuminated

Today's Extremes

State Highs State Lows

Community

WunderPhotos

Upload Photos

1,955,455 photos uploaded!

WunderBlog® & News

Nearby

Air Quality

  Air Quality AQ Index Pollutant
Not available.

Snow Depth

Station Depth Elevation

Earthquake Activity

City Distance Mag. Time & Date
Minimum magnitude displayed is 2.5.

Coastal Water Temperatures

Place Temperature

Stations

Nearby Weather Stations

Station Location Temp. Windchill Dew Point Humidity Wind Precip. Elev Updated Type
                   

Watches & Warnings

There are currently no watches in effect.